CPX406 Details

Departure: Nashville International Airport (KBNA)
Arrival: Chicago/Rockford International Airport (KRFD)
Route: HGGRD PXV J73 GUIDO JOT


Current Weather Information
KBNA 260953Z 01009KT 10SM CLR 06/01 A3022 RMK AO2 SLP233 T00560011
KRFD 260954Z 00000KT 10SM CLR M04/M09 A3042 RMK AO2 SLP308 T10391094